Time;durP1;ratioP1;P1;durP2;ratioP2;P2;SDS_P1;SDS_P2;PMS_P1;PMS_P2;Temp;Humidity;BMP_temperature;BMP_pressure;BME280_temperature;BME280_humidity;BME280_pressure;Samples;Min_cycle;Max_cycle;Signal;HPM_P1;HPM_P2
2021/05/01 00:15:02;;;;;;;37.10;18.00;;;;;;;5.34;100.00;100324.05;712073;1203;115416;-76
2021/05/01 00:30:24;;;;;;;23.30;13.13;;;;;;;5.34;100.00;100321.45;712018;1203;115068;-76
2021/05/01 00:45:44;;;;;;;20.87;10.03;;;;;;;5.24;100.00;100318.64;712074;1208;115374;-76
2021/05/01 01:16:30;;;;;;;16.37;8.50;;;;;;;5.08;100.00;100359.55;712036;1203;115566;-76
2021/05/01 01:31:51;;;;;;;16.30;8.50;;;;;;;4.85;100.00;100359.25;712023;1204;115037;-76
2021/05/01 01:47:12;;;;;;;19.05;8.33;;;;;;;4.62;100.00;100352.91;712014;1205;114216;-76
2021/05/01 02:02:33;;;;;;;13.43;6.75;;;;;;;4.47;100.00;100385.84;712021;1208;113815;-77
2021/05/01 02:17:55;;;;;;;13.15;7.38;;;;;;;4.36;100.00;100383.91;711963;1203;113841;-75
2021/05/01 02:33:16;;;;;;;15.15;6.78;;;;;;;4.19;100.00;100410.06;711966;1203;114000;-77
2021/05/01 02:48:37;;;;;;;19.90;8.67;;;;;;;3.81;100.00;100408.77;712024;1181;114230;-75
2021/05/01 03:03:57;;;;;;;11.90;6.10;;;;;;;3.72;100.00;100389.39;712097;1203;115431;-75
2021/05/01 03:19:18;;;;;;;15.35;6.40;;;;;;;3.82;100.00;100392.28;712094;1205;115481;-75
2021/05/01 03:34:39;;;;;;;9.43;5.03;;;;;;;3.87;100.00;100413.61;712288;1203;113899;-75
2021/05/01 03:50:00;;;;;;;11.28;5.93;;;;;;;3.75;100.00;100409.11;712198;1205;113813;-77
2021/05/01 04:05:20;;;;;;;11.45;5.90;;;;;;;4.05;100.00;100429.89;712255;1203;115469;-75
2021/05/01 04:20:41;;;;;;;11.15;6.45;;;;;;;4.31;100.00;100410.14;712114;1206;113801;-76
2021/05/01 04:36:02;;;;;;;20.40;9.10;;;;;;;4.57;100.00;100425.11;712032;1203;113958;-76
2021/05/01 04:51:23;;;;;;;19.70;7.40;;;;;;;4.66;100.00;100424.55;712275;1203;114436;-75
2021/05/01 05:06:44;;;;;;;41.83;23.57;;;;;;;4.83;100.00;100407.92;715655;1168;113948;-75
2021/05/01 05:22:04;;;;;;;24.63;12.87;;;;;;;4.97;100.00;100410.47;712823;1206;113994;-75
2021/05/01 05:37:24;;;;;;;87.25;33.18;;;;;;;5.33;100.00;100426.45;712494;1191;116127;-76
2021/05/01 05:52:45;;;;;;;32.90;15.70;;;;;;;5.59;100.00;100416.14;712407;1179;114126;-75
2021/05/01 06:08:06;;;;;;;27.55;15.93;;;;;;;5.88;100.00;100411.61;712543;1206;114748;-77
2021/05/01 06:23:27;;;;;;;13.55;7.80;;;;;;;6.12;100.00;100423.97;713009;1202;115465;-75
2021/05/01 06:38:47;;;;;;;29.23;11.13;;;;;;;6.76;100.00;100439.58;712921;1205;114401;-76
2021/05/01 06:54:09;;;;;;;10.00;6.10;;;;;;;7.08;100.00;100425.22;712805;1203;114826;-78
2021/05/01 07:09:31;;;;;;;15.20;6.10;;;;;;;7.62;100.00;100427.38;713019;1202;114030;-80
2021/05/01 07:24:52;;;;;;;20.77;8.63;;;;;;;8.32;100.00;100436.12;713446;1189;114660;-78
2021/05/01 07:40:13;;;;;;;14.07;7.60;;;;;;;8.59;100.00;100427.16;712943;1202;115440;-77
2021/05/01 09:41:23;;;;;;;14.45;9.68;;;;;;;13.91;96.14;100445.33;716605;1191;23102;-77
2021/05/01 09:56:46;;;;;;;155.63;43.53;;;;;;;14.64;86.33;100439.71;715559;1199;113887;-78
2021/05/01 10:12:11;;;;;;;11.53;5.98;;;;;;;14.54;82.21;100424.95;715544;1199;114333;-78
2021/05/01 10:27:54;;;;;;;8.63;5.50;;;;;;;14.88;78.36;100406.47;715476;1200;114035;-78
2021/05/01 10:43:18;;;;;;;15.53;10.08;;;;;;;15.78;75.46;100394.34;715603;1199;114286;-79
2021/05/01 10:58:42;;;;;;;18.00;7.78;;;;;;;15.11;71.67;100384.72;715501;1199;113237;-78
2021/05/01 11:14:23;;;;;;;9.08;6.58;;;;;;;15.70;70.84;100371.38;715418;1181;113287;-80
2021/05/01 11:29:43;;;;;;;17.20;10.43;;;;;;;16.70;69.88;100350.78;715929;1199;113354;-69
2021/05/01 11:45:13;;;;;;;419.25;171.20;;;;;;;16.64;64.75;100323.98;717652;1200;114294;-75
2021/05/01 12:00:38;;;;;;;10.50;7.00;;;;;;;15.65;62.76;100334.02;715608;1199;114355;-75
2021/05/01 12:16:00;;;;;;;20.43;12.83;;;;;;;16.43;60.56;100310.50;715988;1201;114544;-75
2021/05/01 12:31:41;;;;;;;8.18;5.08;;;;;;;16.20;59.93;100326.34;715755;1200;113938;-80
2021/05/01 12:47:04;;;;;;;11.30;5.73;;;;;;;16.19;58.57;100317.55;716237;1180;114894;-81
2021/05/01 13:02:26;;;;;;;7.90;4.48;;;;;;;15.50;58.25;100293.41;716114;1174;113776;-81
2021/05/01 13:18:09;;;;;;;9.28;5.60;;;;;;;15.71;59.10;100304.27;716983;1202;114257;-81
2021/05/01 13:33:30;;;;;;;69.23;25.55;;;;;;;14.84;59.70;100301.33;715487;1199;114202;-80
2021/05/01 13:48:53;;;;;;;12.88;6.60;;;;;;;14.10;61.11;100288.70;715324;1199;114220;-80
2021/05/01 14:04:39;;;;;;;45.33;20.55;;;;;;;13.98;62.20;100286.33;715086;1192;113673;-79
2021/05/01 14:20:03;;;;;;;227.58;117.18;;;;;;;13.83;62.63;100268.61;714646;1175;113857;-77
2021/05/01 14:35:24;;;;;;;36.55;20.43;;;;;;;13.80;61.80;100257.41;715015;1202;114730;-78
2021/05/01 14:50:46;;;;;;;80.13;38.00;;;;;;;13.52;63.21;100267.28;714891;1200;114027;-78
2021/05/01 15:06:07;;;;;;;32.23;18.23;;;;;;;13.50;63.71;100245.55;716650;1202;113850;-77
2021/05/01 15:21:57;;;;;;;25.30;14.75;;;;;;;13.56;64.03;100273.08;715287;1199;114485;-79
2021/05/01 15:37:17;;;;;;;38.08;22.50;;;;;;;13.42;64.75;100213.85;714967;1199;115498;-76
2021/05/01 15:52:38;;;;;;;79.33;33.18;;;;;;;13.38;64.73;100244.98;715586;1199;113865;-75
2021/05/01 16:07:59;;;;;;;23.10;11.75;;;;;;;13.35;64.26;100225.98;715271;1202;115042;-78
2021/05/01 16:23:19;;;;;;;30.75;14.83;;;;;;;13.35;64.68;100203.08;715307;1202;114471;-78
2021/05/01 16:38:39;;;;;;;57.45;24.38;;;;;;;13.18;64.73;100225.03;716367;1200;113927;-78
2021/05/01 16:54:00;;;;;;;179.28;82.90;;;;;;;12.72;66.54;100212.83;715945;1202;114091;-80
2021/05/01 17:09:23;;;;;;;64.20;34.23;;;;;;;12.52;67.94;100206.05;716464;1174;114581;-79
2021/05/01 17:24:43;;;;;;;64.07;29.87;;;;;;;12.34;69.84;100234.97;717330;1184;114369;-79
2021/05/01 17:40:04;;;;;;;40.53;19.15;;;;;;;12.19;70.11;100253.05;715906;1202;115643;-79
2021/05/01 17:55:25;;;;;;;160.25;110.18;;;;;;;12.02;71.45;100238.88;716901;1174;114458;-81
2021/05/01 18:10:46;;;;;;;149.08;59.05;;;;;;;11.86;72.45;100252.62;716697;1173;114405;-81
2021/05/01 18:26:11;;;;;;;96.93;40.88;;;;;;;11.86;73.30;100255.25;715894;1200;114971;-80
2021/05/01 18:41:32;;;;;;;103.68;38.15;;;;;;;11.55;75.43;100243.17;715508;1199;114120;-81
2021/05/01 18:56:53;;;;;;;178.55;63.18;;;;;;;11.38;76.36;100255.23;715059;1200;114563;-80
2021/05/01 19:12:17;;;;;;;143.30;53.63;;;;;;;11.40;77.79;100266.45;715717;1199;115439;-81
2021/05/01 19:27:40;;;;;;;88.83;43.08;;;;;;;11.33;78.97;100271.41;715873;1189;113981;-76
2021/05/01 19:43:00;;;;;;;66.35;32.55;;;;;;;11.06;81.36;100251.14;715301;1200;115776;-75
2021/05/01 19:58:21;;;;;;;175.88;59.63;;;;;;;10.92;81.89;100246.30;715428;1200;114002;-76
2021/05/01 20:13:42;;;;;;;41.33;22.65;;;;;;;10.86;83.11;100246.84;715843;1175;114604;-75
2021/05/01 20:29:02;;;;;;;234.45;84.67;;;;;;;10.86;84.23;100262.59;716110;1179;115325;-75
2021/05/01 20:44:23;;;;;;;237.10;97.45;;;;;;;10.76;85.81;100271.29;715898;1202;115042;-75
2021/05/01 20:59:44;;;;;;;94.05;39.83;;;;;;;10.49;87.08;100250.95;715898;1178;114375;-74
2021/05/01 21:15:06;;;;;;;90.00;41.43;;;;;;;10.40;87.33;100229.00;716065;1198;114552;-75
2021/05/01 21:30:27;;;;;;;42.10;24.05;;;;;;;10.33;88.19;100219.97;715794;1202;114093;-75
2021/05/01 21:45:47;;;;;;;59.90;26.93;;;;;;;10.29;89.43;100214.19;716118;1190;114018;-76
2021/05/01 22:01:25;;;;;;;31.53;18.25;;;;;;;10.19;89.63;100192.36;715983;1199;114389;-75
2021/05/01 22:16:45;;;;;;;25.28;13.60;;;;;;;10.16;90.92;100176.89;716847;1173;114093;-75
2021/05/01 22:32:07;;;;;;;29.70;15.75;;;;;;;10.02;91.84;100175.49;716318;1202;114856;-75
2021/05/01 22:47:28;;;;;;;32.68;16.35;;;;;;;9.99;93.21;100167.91;716140;1198;114636;-76
2021/05/01 23:02:48;;;;;;;29.45;15.88;;;;;;;10.06;93.11;100165.58;715085;1191;114882;-75
2021/05/01 23:18:10;;;;;;;37.73;19.13;;;;;;;10.11;92.35;100147.66;715185;1174;113960;-75
2021/05/01 23:33:30;;;;;;;33.33;18.50;;;;;;;10.04;92.94;100131.62;714785;1199;114516;-75
2021/05/01 23:48:52;;;;;;;35.13;17.00;;;;;;;9.96;93.05;100094.78;714736;1202;113972;-75
